createdAt,value
2019-05-18T00:01:32.206Z,12.80
2019-05-18T00:04:01.590Z,12.80
2019-05-18T00:06:31.004Z,12.80
2019-05-18T00:09:00.698Z,12.90
2019-05-18T00:11:30.126Z,12.90
2019-05-18T00:13:59.834Z,12.90
2019-05-18T00:16:29.351Z,12.90
2019-05-18T00:18:58.727Z,12.90
2019-05-18T00:21:28.142Z,12.90
2019-05-18T00:23:57.649Z,12.90
2019-05-18T00:26:27.329Z,13.00
2019-05-18T00:28:57.053Z,13.00
2019-05-18T00:31:26.761Z,13.00
2019-05-18T00:33:56.151Z,13.10
2019-05-18T00:36:25.560Z,13.00
2019-05-18T00:38:55.233Z,13.10
2019-05-18T00:41:24.639Z,13.10
2019-05-18T00:43:54.302Z,13.10
2019-05-18T00:46:23.718Z,13.10
2019-05-18T00:48:53.090Z,13.10
2019-05-18T00:51:23.376Z,13.00
2019-05-18T00:53:52.942Z,13.00
2019-05-18T00:56:22.351Z,13.00
2019-05-18T00:58:51.717Z,13.00
2019-05-18T01:01:21.137Z,13.00
2019-05-18T01:03:50.497Z,12.90
2019-05-18T01:06:19.930Z,13.00
2019-05-18T01:08:49.446Z,13.00
2019-05-18T01:11:18.856Z,13.00
2019-05-18T01:13:48.531Z,13.00
2019-05-18T01:16:17.945Z,12.90
2019-05-18T01:18:47.341Z,12.90
2019-05-18T01:21:17.412Z,12.80
2019-05-18T01:23:46.755Z,12.90
2019-05-18T01:26:16.507Z,12.80
2019-05-18T01:28:45.887Z,12.80
2019-05-18T01:31:15.327Z,12.90
2019-05-18T01:33:44.727Z,12.80
2019-05-18T01:36:14.400Z,12.80
2019-05-18T01:38:43.785Z,12.80
2019-05-18T01:41:13.646Z,12.70
2019-05-18T01:43:43.372Z,12.70
2019-05-18T01:46:12.779Z,12.70
2019-05-18T01:48:42.179Z,12.70
2019-05-18T01:51:11.632Z,12.70
2019-05-18T01:53:40.967Z,12.60
2019-05-18T01:56:10.372Z,12.70
2019-05-18T01:58:39.755Z,12.60
2019-05-18T02:01:09.176Z,12.60
2019-05-18T02:03:38.956Z,12.60
2019-05-18T02:06:08.361Z,12.60
2019-05-18T02:08:37.743Z,12.50
2019-05-18T02:11:07.173Z,12.50
2019-05-18T02:13:36.545Z,12.50
2019-05-18T02:16:05.958Z,12.50
2019-05-18T02:18:35.343Z,12.50
2019-05-18T02:21:04.776Z,12.50
2019-05-18T02:23:34.436Z,12.50
2019-05-18T02:26:03.868Z,12.50
2019-05-18T02:28:33.525Z,12.60
2019-05-18T02:31:03.000Z,12.60
2019-05-18T02:33:32.389Z,12.60
2019-05-18T02:36:01.763Z,12.70
2019-05-18T02:38:31.156Z,12.70
2019-05-18T02:41:00.823Z,12.80
2019-05-18T02:43:30.242Z,12.80
2019-05-18T02:45:59.613Z,12.80
2019-05-18T02:48:45.785Z,12.80
2019-05-18T02:51:00.027Z,12.90
2019-05-18T02:53:29.457Z,12.90
2019-05-18T02:55:58.839Z,12.90
2019-05-18T02:58:28.259Z,12.80
2019-05-18T03:00:57.642Z,12.80
2019-05-18T03:03:27.062Z,12.80
2019-05-18T03:05:56.462Z,12.80
2019-05-18T03:08:26.146Z,12.80
2019-05-18T03:10:55.826Z,12.70
2019-05-18T03:13:25.325Z,12.70
2019-05-18T03:15:54.728Z,12.70
2019-05-18T03:18:24.137Z,12.70
2019-05-18T03:20:53.504Z,12.70
2019-05-18T03:23:22.913Z,12.70
2019-05-18T03:25:52.284Z,12.70
2019-05-18T03:28:21.693Z,12.70
2019-05-18T03:30:51.103Z,12.70
2019-05-18T03:33:20.517Z,12.70
2019-05-18T03:35:50.180Z,12.60
2019-05-18T03:38:19.590Z,12.60
2019-05-18T03:40:49.593Z,12.60
2019-05-18T03:43:19.547Z,12.60
2019-05-18T03:45:48.940Z,12.60
2019-05-18T03:48:18.340Z,12.60
2019-05-18T03:50:47.729Z,12.60
2019-05-18T03:53:18.280Z,12.60
2019-05-18T03:55:48.251Z,12.60
2019-05-18T03:58:17.660Z,12.50
2019-05-18T04:00:47.038Z,12.50
2019-05-18T04:03:16.449Z,12.50
2019-05-18T04:05:45.841Z,12.50
2019-05-18T04:08:15.563Z,12.60
2019-05-18T04:10:44.932Z,12.90
2019-05-18T04:13:14.599Z,13.10
2019-05-18T04:15:43.991Z,13.00
2019-05-18T04:18:13.399Z,12.90
2019-05-18T04:20:42.785Z,12.90
2019-05-18T04:23:12.315Z,12.90
2019-05-18T04:25:43.912Z,12.90
2019-05-18T04:28:13.149Z,12.90
2019-05-18T04:30:42.543Z,12.80
2019-05-18T04:33:12.196Z,12.90
2019-05-18T04:35:41.610Z,12.90
2019-05-18T04:38:10.985Z,12.90
2019-05-18T04:40:40.377Z,12.90
2019-05-18T04:43:09.789Z,13.10
2019-05-18T04:45:39.193Z,13.10
2019-05-18T04:48:08.621Z,13.20
2019-05-18T04:50:37.980Z,13.10
2019-05-18T04:53:07.388Z,13.10
2019-05-18T04:55:37.022Z,13.00
2019-05-18T04:58:06.431Z,13.00
2019-05-18T05:00:36.357Z,13.10
2019-05-18T05:03:05.769Z,13.00
2019-05-18T05:05:35.155Z,13.00
2019-05-18T05:08:04.561Z,12.90
2019-05-18T05:10:33.927Z,13.00
2019-05-18T05:13:03.497Z,12.90
2019-05-18T05:15:32.866Z,12.90
2019-05-18T05:18:02.309Z,13.00
2019-05-18T05:20:31.691Z,13.30
2019-05-18T05:23:01.118Z,13.80
2019-05-18T05:25:30.792Z,14.30
2019-05-18T05:28:00.165Z,14.70
2019-05-18T05:30:29.615Z,14.80
2019-05-18T05:32:59.283Z,15.10
2019-05-18T05:35:28.714Z,15.30
2019-05-18T05:37:58.298Z,15.30
2019-05-18T05:40:27.987Z,15.50
2019-05-18T05:42:57.976Z,16.10
2019-05-18T05:45:27.385Z,16.10
2019-05-18T05:47:56.765Z,16.60
2019-05-18T05:50:35.126Z,16.80
2019-05-18T05:52:57.528Z,16.50
2019-05-18T05:55:27.198Z,16.40
2019-05-18T05:57:56.602Z,16.30
2019-05-18T06:00:26.020Z,16.50
2019-05-18T06:02:55.385Z,16.30
2019-05-18T06:05:24.789Z,16.20
2019-05-18T06:07:54.172Z,16.50
2019-05-18T06:10:23.572Z,16.90
2019-05-18T06:12:53.233Z,16.80
2019-05-18T06:15:22.653Z,17.10
2019-05-18T06:17:52.036Z,17.20
2019-05-18T06:20:21.749Z,17.00
2019-05-18T06:22:51.195Z,17.20
2019-05-18T06:25:20.882Z,17.20
2019-05-18T06:27:50.274Z,17.00
2019-05-18T06:30:20.005Z,17.20
2019-05-18T06:32:49.657Z,16.80
2019-05-18T06:35:19.318Z,16.70
2019-05-18T06:37:48.706Z,17.40
2019-05-18T06:40:18.114Z,17.10
2019-05-18T06:42:47.786Z,16.80
2019-05-18T06:45:17.371Z,16.60
2019-05-18T06:47:48.511Z,16.60
2019-05-18T06:50:22.466Z,16.20
2019-05-18T06:52:52.370Z,15.90
2019-05-18T06:55:22.176Z,16.00
2019-05-18T06:57:51.955Z,16.00
2019-05-18T07:00:21.460Z,16.20
2019-05-18T07:02:50.853Z,16.30
2019-05-18T07:05:20.258Z,16.70
2019-05-18T07:07:49.678Z,16.50
2019-05-18T07:10:19.102Z,16.60
2019-05-18T07:12:48.765Z,16.60
2019-05-18T07:15:20.222Z,16.50
2019-05-18T07:17:49.812Z,16.60
2019-05-18T07:20:19.291Z,16.40
2019-05-18T07:22:48.754Z,16.30
2019-05-18T07:25:18.496Z,16.50
2019-05-18T07:27:47.868Z,16.30
2019-05-18T07:30:17.810Z,16.40
2019-05-18T07:32:47.191Z,16.30
2019-05-18T07:35:17.783Z,16.70
2019-05-18T07:37:47.187Z,17.00
2019-05-18T07:40:16.583Z,16.90
2019-05-18T07:42:45.978Z,17.20
2019-05-18T07:45:15.480Z,17.30
2019-05-18T07:47:44.862Z,17.40
2019-05-18T07:50:15.016Z,17.40
2019-05-18T07:52:44.417Z,17.20
2019-05-18T07:55:15.263Z,17.10
2019-05-18T07:57:44.662Z,17.20
2019-05-18T08:00:15.571Z,17.50
2019-05-18T08:02:44.974Z,17.90
2019-05-18T08:05:15.134Z,17.60
2019-05-18T08:07:44.596Z,17.90
2019-05-18T08:10:14.506Z,17.80
2019-05-18T08:12:44.180Z,17.60
2019-05-18T08:15:15.405Z,17.50
2019-05-18T08:17:44.828Z,17.40
2019-05-18T08:20:14.440Z,17.40
2019-05-18T08:22:43.849Z,17.30
2019-05-18T08:25:14.160Z,17.60
2019-05-18T08:27:44.185Z,18.10
2019-05-18T08:30:13.607Z,17.90
2019-05-18T08:32:43.025Z,18.30
2019-05-18T08:35:12.595Z,18.30
2019-05-18T08:37:42.280Z,18.30
2019-05-18T08:40:11.875Z,17.90
2019-05-18T08:42:41.672Z,17.90
2019-05-18T08:45:11.198Z,18.10
2019-05-18T08:47:40.695Z,18.30
2019-05-18T08:50:10.788Z,18.50
2019-05-18T08:52:40.206Z,18.20
2019-05-18T08:55:10.102Z,18.20
2019-05-18T08:57:39.626Z,18.30
2019-05-18T09:00:09.440Z,18.40
2019-05-18T09:02:38.950Z,17.80
2019-05-18T09:05:08.456Z,18.00
2019-05-18T09:07:38.219Z,18.10
2019-05-18T09:10:08.817Z,18.10
2019-05-18T09:12:38.253Z,18.40
2019-05-18T09:15:07.999Z,18.20
2019-05-18T09:17:37.484Z,18.30
2019-05-18T09:20:07.884Z,18.20
2019-05-18T09:22:37.441Z,18.00
2019-05-18T09:25:07.129Z,18.00
2019-05-18T09:27:36.584Z,18.10
2019-05-18T09:30:06.989Z,18.10
2019-05-18T09:32:36.813Z,18.10
2019-05-18T09:35:06.290Z,18.00
2019-05-18T09:37:35.727Z,18.10
2019-05-18T09:40:05.655Z,18.10
2019-05-18T09:42:35.124Z,18.00
2019-05-18T09:45:05.357Z,18.10
2019-05-18T09:47:34.784Z,18.40
2019-05-18T09:50:04.522Z,19.00
2019-05-18T09:52:44.696Z,19.40
2019-05-18T09:55:05.890Z,19.60
2019-05-18T09:57:35.636Z,19.40
2019-05-18T10:00:06.152Z,19.00
2019-05-18T10:02:36.270Z,19.00
2019-05-18T10:05:06.089Z,19.10
2019-05-18T10:07:36.305Z,19.10
2019-05-18T10:13:01.576Z,19.40
2019-05-18T10:18:47.434Z,20.20
2019-05-18T10:21:28.102Z,20.20
2019-05-18T10:27:16.266Z,20.30
2019-05-18T10:29:46.695Z,20.10
2019-05-18T10:32:36.626Z,20.20
2019-05-18T10:35:43.222Z,20.10
2019-05-18T10:38:31.821Z,20.00
2019-05-18T10:44:26.972Z,19.70
2019-05-18T10:47:15.456Z,19.90
2019-05-18T10:50:03.504Z,19.90
2019-05-18T10:52:50.835Z,20.60
2019-05-18T10:55:40.632Z,20.10
2019-05-18T10:58:29.134Z,20.40
2019-05-18T11:04:41.761Z,20.40
2019-05-18T11:11:03.311Z,20.40
2019-05-18T11:13:51.824Z,21.00
2019-05-18T11:19:48.143Z,21.30
2019-05-18T11:22:36.618Z,21.00
2019-05-18T11:25:25.899Z,21.40
2019-05-18T11:28:14.395Z,21.10
2019-05-18T11:30:55.083Z,21.50
2019-05-18T11:33:35.900Z,21.50
2019-05-18T11:36:17.318Z,22.00
2019-05-18T11:38:58.207Z,22.10
2019-05-18T11:41:38.903Z,22.00
2019-05-18T11:44:20.373Z,22.20
2019-05-18T11:47:01.387Z,22.30
2019-05-18T11:49:43.073Z,22.60
2019-05-18T11:52:43.433Z,22.70
2019-05-18T11:55:25.092Z,22.50
2019-05-18T11:58:05.824Z,22.00
2019-05-18T12:00:47.110Z,22.10
2019-05-18T12:03:28.545Z,22.60
2019-05-18T12:06:10.171Z,23.00
2019-05-18T12:08:51.598Z,23.40
2019-05-18T12:11:32.368Z,23.50
2019-05-18T12:14:01.845Z,23.40
2019-05-18T12:16:50.786Z,23.00
2019-05-18T12:19:39.640Z,22.90
2019-05-18T12:26:12.551Z,21.90
2019-05-18T12:28:42.247Z,22.20
2019-05-18T12:31:12.085Z,22.40
2019-05-18T12:34:00.594Z,22.30
2019-05-18T12:36:30.303Z,22.30
2019-05-18T12:39:18.798Z,22.10
2019-05-18T12:42:07.757Z,21.80
2019-05-18T12:44:57.554Z,21.50
2019-05-18T12:47:46.524Z,22.00
2019-05-18T12:50:35.347Z,22.30
2019-05-18T12:53:24.087Z,22.40
2019-05-18T12:56:13.202Z,22.30
2019-05-18T12:59:01.674Z,22.10
2019-05-18T13:01:50.181Z,22.10
2019-05-18T13:04:41.736Z,22.00
2019-05-18T13:08:05.547Z,21.40
2019-05-18T13:10:54.421Z,21.00
2019-05-18T13:13:43.181Z,21.20
2019-05-18T13:16:49.095Z,21.00
2019-05-18T13:19:36.159Z,21.10
2019-05-18T13:22:24.651Z,21.00
2019-05-18T13:28:44.055Z,21.20
2019-05-18T13:40:58.034Z,21.20
2019-05-18T13:50:19.726Z,21.00
2019-05-18T13:56:18.749Z,21.00
2019-05-18T14:02:16.460Z,20.90
2019-05-18T14:04:45.875Z,21.00
2019-05-18T14:07:33.093Z,20.80
2019-05-18T14:10:56.600Z,20.70
2019-05-18T14:16:33.103Z,21.20
2019-05-18T14:19:21.682Z,20.70
2019-05-18T14:22:28.294Z,20.00
2019-05-18T14:25:19.646Z,19.50
2019-05-18T14:31:06.646Z,19.30
2019-05-18T14:33:48.171Z,19.50
2019-05-18T14:36:28.831Z,19.20
2019-05-18T14:39:10.717Z,18.90
2019-05-18T14:41:52.067Z,18.80
2019-05-18T14:44:33.080Z,18.60
2019-05-18T14:47:13.820Z,18.10
2019-05-18T14:49:55.485Z,18.00
2019-05-18T14:52:55.801Z,18.40
2019-05-18T15:04:40.299Z,18.60
2019-05-18T15:07:29.207Z,18.70
2019-05-18T15:10:17.608Z,18.60
2019-05-18T15:13:23.745Z,18.60
2019-05-18T15:16:30.079Z,18.70
2019-05-18T15:22:25.291Z,18.70
2019-05-18T15:24:54.802Z,18.80
2019-05-18T15:27:43.283Z,18.70
2019-05-18T15:30:24.437Z,18.80
2019-05-18T15:33:06.145Z,18.80
2019-05-18T15:35:47.156Z,19.00
2019-05-18T15:41:33.780Z,18.90
2019-05-18T15:44:03.219Z,18.90
2019-05-18T15:46:51.696Z,18.80
2019-05-18T15:49:40.168Z,18.80
2019-05-18T15:52:28.663Z,18.80
2019-05-18T15:58:06.259Z,18.80
2019-05-18T16:00:54.717Z,18.80
2019-05-18T16:04:00.651Z,18.80
2019-05-18T16:06:47.825Z,18.60
2019-05-18T16:09:36.725Z,18.40
2019-05-18T16:12:25.214Z,18.60
2019-05-18T16:18:02.464Z,18.50
2019-05-18T16:20:50.947Z,18.30
2019-05-18T16:23:39.705Z,18.50
2019-05-18T16:26:28.472Z,18.40
2019-05-18T16:29:34.601Z,17.80
2019-05-18T16:32:15.177Z,18.00
2019-05-18T16:34:55.943Z,18.00
2019-05-18T16:37:37.124Z,17.80
2019-05-18T16:40:18.675Z,17.90
2019-05-18T16:46:07.798Z,17.80
2019-05-18T16:48:49.117Z,17.70
2019-05-18T16:51:29.862Z,17.70
2019-05-18T16:54:11.386Z,17.80
2019-05-18T16:56:53.071Z,17.80
2019-05-18T16:59:40.610Z,17.70
2019-05-18T17:02:31.315Z,17.70
2019-05-18T17:05:04.764Z,17.80
2019-05-18T17:10:54.541Z,17.80
2019-05-18T17:16:43.310Z,17.80
2019-05-18T17:19:24.763Z,17.80
2019-05-18T17:25:24.997Z,17.90
2019-05-18T17:28:25.514Z,17.70
2019-05-18T17:31:07.211Z,17.80
2019-05-18T17:33:48.412Z,17.70
2019-05-18T17:36:29.064Z,17.80
2019-05-18T17:42:15.003Z,17.70
2019-05-18T17:44:55.846Z,17.80
2019-05-18T17:47:55.485Z,17.80
2019-05-18T17:50:35.358Z,17.70
2019-05-18T17:53:41.666Z,17.70
2019-05-18T17:56:30.123Z,17.60
2019-05-18T17:59:18.648Z,17.50
2019-05-18T18:02:07.101Z,17.70
2019-05-18T18:04:54.790Z,17.50
2019-05-18T18:10:31.805Z,17.30
2019-05-18T18:13:19.800Z,17.20
2019-05-18T18:16:08.266Z,17.30
2019-05-18T18:18:56.793Z,17.10
2019-05-18T18:21:45.288Z,17.00
2019-05-18T18:24:33.820Z,16.80
2019-05-18T18:27:25.382Z,16.80
2019-05-18T18:33:13.683Z,16.80
2019-05-18T18:39:00.378Z,16.90
2019-05-18T18:41:41.487Z,16.90
2019-05-18T18:44:22.947Z,16.90
2019-05-18T18:47:04.320Z,16.50
2019-05-18T18:49:45.030Z,16.50
2019-05-18T18:52:14.458Z,16.40
2019-05-18T18:54:44.264Z,16.30
2019-05-18T18:57:13.800Z,16.50
2019-05-18T18:59:43.228Z,16.50
2019-05-18T19:02:31.706Z,16.40
2019-05-18T19:05:01.116Z,16.20
2019-05-18T19:07:49.592Z,16.10
2019-05-18T19:10:38.084Z,16.00
2019-05-18T19:13:26.575Z,16.20
2019-05-18T19:16:15.166Z,16.10
2019-05-18T19:19:03.631Z,15.90
2019-05-18T19:21:52.254Z,15.90
2019-05-18T19:24:41.164Z,15.90
2019-05-18T19:27:29.572Z,15.90
2019-05-18T19:30:10.601Z,15.80
2019-05-18T19:32:51.309Z,15.70
2019-05-18T19:35:32.147Z,15.70
2019-05-18T19:38:13.697Z,15.70
2019-05-18T19:43:59.843Z,15.60
2019-05-18T19:46:40.496Z,15.50
2019-05-18T19:52:40.568Z,15.30
2019-05-18T19:55:21.442Z,15.30
2019-05-18T19:58:08.942Z,15.20
2019-05-18T20:00:45.588Z,15.20
2019-05-18T20:03:27.298Z,15.20
2019-05-18T20:06:08.438Z,15.20
2019-05-18T20:08:50.014Z,15.20
2019-05-18T20:11:30.818Z,15.20
2019-05-18T20:14:11.764Z,15.30
2019-05-18T20:16:51.365Z,15.20
2019-05-18T20:19:39.993Z,15.10
2019-05-18T20:22:29.961Z,15.00
2019-05-18T20:25:36.196Z,14.80
2019-05-18T20:28:24.729Z,14.80
2019-05-18T20:31:05.938Z,14.70
2019-05-18T20:33:47.119Z,14.60
2019-05-18T20:39:33.276Z,14.60
2019-05-18T20:42:14.995Z,14.70
2019-05-18T20:44:56.413Z,14.70
2019-05-18T20:47:37.810Z,14.70
2019-05-18T20:50:18.483Z,14.80
2019-05-18T20:59:12.526Z,14.70
2019-05-18T21:01:54.381Z,14.70
2019-05-18T21:04:35.578Z,14.70
2019-05-18T21:07:16.420Z,14.70
2019-05-18T21:09:57.622Z,14.70
2019-05-18T21:12:39.102Z,14.60
2019-05-18T21:15:18.785Z,14.60
2019-05-18T21:18:07.277Z,14.50
2019-05-18T21:20:56.156Z,14.50
2019-05-18T21:23:44.621Z,14.40
2019-05-18T21:26:33.457Z,14.40
2019-05-18T21:29:21.954Z,14.40
2019-05-18T21:35:41.107Z,14.20
2019-05-18T21:38:29.627Z,14.20
2019-05-18T21:41:18.121Z,14.20
2019-05-18T21:44:06.969Z,14.10
2019-05-18T21:46:55.469Z,14.00
2019-05-18T21:52:32.724Z,13.90
2019-05-18T21:55:21.211Z,14.00
2019-05-18T21:58:12.230Z,13.90
2019-05-18T22:00:59.832Z,13.90
2019-05-18T22:03:48.472Z,13.80
2019-05-18T22:06:36.964Z,13.80
2019-05-18T22:09:25.462Z,13.80
2019-05-18T22:15:44.355Z,13.70
2019-05-18T22:18:32.867Z,13.70
2019-05-18T22:21:21.665Z,13.60
2019-05-18T22:24:10.436Z,13.60
2019-05-18T22:26:58.948Z,13.70
2019-05-18T22:33:24.387Z,13.70
2019-05-18T22:39:26.664Z,13.70
2019-05-18T22:42:07.144Z,13.80
2019-05-18T22:45:06.969Z,13.80
2019-05-18T22:47:48.826Z,13.80
2019-05-18T22:50:30.159Z,13.80
2019-05-18T22:56:16.046Z,13.70
2019-05-18T22:58:57.615Z,13.80
2019-05-18T23:01:38.243Z,13.80
2019-05-18T23:04:18.933Z,13.70
2019-05-18T23:06:59.637Z,13.70
2019-05-18T23:09:41.119Z,13.70
2019-05-18T23:12:22.016Z,13.70
2019-05-18T23:15:03.556Z,13.80
2019-05-18T23:17:45.326Z,13.90
2019-05-18T23:20:26.549Z,13.90
2019-05-18T23:23:08.322Z,13.90
2019-05-18T23:25:49.810Z,13.80
2019-05-18T23:28:30.536Z,13.80
2019-05-18T23:31:11.201Z,13.80
2019-05-18T23:33:52.208Z,13.70
2019-05-18T23:36:33.663Z,13.70
2019-05-18T23:39:15.096Z,13.70
2019-05-18T23:42:15.494Z,13.70
2019-05-18T23:44:57.033Z,13.70
2019-05-18T23:47:37.652Z,13.80
2019-05-18T23:50:19.184Z,13.80
2019-05-18T23:53:00.620Z,13.80
2019-05-18T23:55:42.188Z,13.70
2019-05-18T23:58:23.742Z,13.70
